createdAt,value
2023-01-11T00:00:39.149Z,67.10
2023-01-11T00:03:06.488Z,66.94
2023-01-11T00:05:38.139Z,66.99
2023-01-11T00:08:05.388Z,66.99
2023-01-11T00:10:33.269Z,67.34
2023-01-11T00:13:01.064Z,67.25
2023-01-11T00:15:27.665Z,67.22
2023-01-11T00:17:54.105Z,67.33
2023-01-11T00:20:20.504Z,67.32
2023-01-11T00:22:46.904Z,67.20
2023-01-11T00:25:13.219Z,67.19
2023-01-11T00:27:39.664Z,67.01
2023-01-11T00:30:06.567Z,66.86
2023-01-11T00:32:32.974Z,66.81
2023-01-11T00:34:59.348Z,67.07
2023-01-11T00:37:25.729Z,66.67
2023-01-11T00:39:52.487Z,66.80
2023-01-11T00:42:37.370Z,66.52
2023-01-11T00:45:22.634Z,66.48
2023-01-11T00:47:57.905Z,66.74
2023-01-11T00:50:25.821Z,66.61
2023-01-11T00:52:52.384Z,66.48
2023-01-11T00:55:18.916Z,66.46
2023-01-11T00:57:45.340Z,66.27
2023-01-11T01:00:12.622Z,66.53
2023-01-11T01:02:39.096Z,66.57
2023-01-11T01:05:06.433Z,66.55
2023-01-11T01:07:33.027Z,66.55
2023-01-11T01:09:59.466Z,66.57
2023-01-11T01:12:44.564Z,66.50
2023-01-11T01:15:11.307Z,66.42
2023-01-11T01:17:37.717Z,66.32
2023-01-11T01:20:04.581Z,66.50
2023-01-11T01:22:30.984Z,66.49
2023-01-11T01:24:57.354Z,66.25
2023-01-11T01:27:23.709Z,66.35
2023-01-11T01:29:50.116Z,66.36
2023-01-11T01:32:16.439Z,66.36
2023-01-11T01:34:42.797Z,66.35
2023-01-11T01:37:11.059Z,66.34
2023-01-11T01:39:37.455Z,66.26
2023-01-11T01:42:05.900Z,66.25
2023-01-11T01:44:51.024Z,66.21
2023-01-11T01:47:20.148Z,66.14
2023-01-11T01:49:46.699Z,66.15
2023-01-11T01:52:13.399Z,66.02
2023-01-11T01:54:45.057Z,66.11
2023-01-11T01:57:19.167Z,65.98
2023-01-11T01:59:51.502Z,65.83
2023-01-11T02:02:20.370Z,65.97
2023-01-11T02:04:49.008Z,66.25
2023-01-11T02:07:18.987Z,65.94
2023-01-11T02:09:52.644Z,66.08
2023-01-11T02:12:19.707Z,66.02
2023-01-11T02:14:47.782Z,65.99
2023-01-11T02:17:14.571Z,66.10
2023-01-11T02:19:53.701Z,65.42
2023-01-11T02:23:01.670Z,66.08
2023-01-11T02:26:06.700Z,65.95
2023-01-11T02:28:33.018Z,65.88
2023-01-11T02:31:16.685Z,65.91
2023-01-11T02:34:11.056Z,65.77
2023-01-11T02:36:49.440Z,65.77
2023-01-11T02:39:38.030Z,65.67
2023-01-11T02:42:32.377Z,65.59
2023-01-11T02:45:13.692Z,65.61
2023-01-11T02:47:46.141Z,65.48
2023-01-11T02:50:29.943Z,65.65
2023-01-11T02:53:32.117Z,65.60
2023-01-11T02:56:01.713Z,65.85
2023-01-11T02:58:32.852Z,65.75
2023-01-11T03:00:59.997Z,65.75
2023-01-11T03:03:30.032Z,65.87
2023-01-11T03:05:56.373Z,66.07
2023-01-11T03:09:13.768Z,65.98
2023-01-11T03:12:04.560Z,66.06
2023-01-11T03:14:49.022Z,66.12
2023-01-11T03:17:46.103Z,66.18
2023-01-11T03:20:27.462Z,66.27
2023-01-11T03:23:41.705Z,66.58
2023-01-11T03:26:08.037Z,66.81
2023-01-11T03:28:34.409Z,66.81
2023-01-11T03:31:34.893Z,66.99
2023-01-11T03:34:19.698Z,67.17
2023-01-11T03:36:55.416Z,67.11
2023-01-11T03:39:34.409Z,67.51
2023-01-11T03:42:03.954Z,67.65
2023-01-11T03:44:35.608Z,67.63
2023-01-11T03:47:06.673Z,67.70
2023-01-11T03:49:51.513Z,68.01
2023-01-11T03:52:25.633Z,68.17
2023-01-11T03:54:55.461Z,68.23
2023-01-11T03:57:35.401Z,67.97
2023-01-11T04:00:02.404Z,68.73
2023-01-11T04:02:35.536Z,68.53
2023-01-11T04:05:02.744Z,68.85
2023-01-11T04:07:29.325Z,68.80
2023-01-11T04:09:55.754Z,68.82
2023-01-11T04:12:22.108Z,68.97
2023-01-11T04:14:48.485Z,69.16
2023-01-11T04:17:14.888Z,69.17
2023-01-11T04:19:41.297Z,69.28
2023-01-11T04:22:07.729Z,69.39
2023-01-11T04:24:34.400Z,69.36
2023-01-11T04:27:00.796Z,69.59
2023-01-11T04:29:27.183Z,69.47
2023-01-11T04:31:53.640Z,69.61
2023-01-11T04:34:20.112Z,69.55
2023-01-11T04:36:46.534Z,69.75
2023-01-11T04:39:12.969Z,69.79
2023-01-11T04:41:58.391Z,69.77
2023-01-11T04:44:25.156Z,69.83
2023-01-11T04:46:51.665Z,69.87
2023-01-11T04:49:18.096Z,69.91
2023-01-11T04:51:44.495Z,69.76
2023-01-11T04:54:10.925Z,69.84
2023-01-11T04:56:37.290Z,69.79
2023-01-11T04:59:03.797Z,69.81
2023-01-11T05:01:30.255Z,69.97
2023-01-11T05:03:56.704Z,69.90
2023-01-11T05:06:23.297Z,70.07
2023-01-11T05:08:49.729Z,69.97
2023-01-11T05:11:17.238Z,70.12
2023-01-11T05:13:43.931Z,70.33
2023-01-11T05:16:24.155Z,70.10
2023-01-11T05:18:55.683Z,69.99
2023-01-11T05:21:24.742Z,70.07
2023-01-11T05:23:51.793Z,70.16
2023-01-11T05:26:24.063Z,70.04
2023-01-11T05:28:51.941Z,70.26
2023-01-11T05:31:18.933Z,70.30
2023-01-11T05:33:45.414Z,70.35
2023-01-11T05:36:14.737Z,70.26
2023-01-11T05:38:41.189Z,70.27
2023-01-11T05:41:09.335Z,70.35
2023-01-11T05:43:55.116Z,70.45
2023-01-11T05:46:22.810Z,70.44
2023-01-11T05:48:49.947Z,70.44
2023-01-11T05:51:16.673Z,70.51
2023-01-11T05:53:43.417Z,70.42
2023-01-11T05:56:09.826Z,70.69
2023-01-11T05:58:36.405Z,70.66
2023-01-11T06:01:03.394Z,70.65
2023-01-11T06:03:29.761Z,70.79
2023-01-11T06:05:59.324Z,70.58
2023-01-11T06:08:26.372Z,70.78
2023-01-11T06:10:56.740Z,70.59
2023-01-11T06:13:28.105Z,70.81
2023-01-11T06:16:09.543Z,70.87
2023-01-11T06:18:38.140Z,70.79
2023-01-11T06:21:05.071Z,71.02
2023-01-11T06:23:35.866Z,70.79
2023-01-11T06:26:07.492Z,70.80
2023-01-11T06:28:33.864Z,71.04
2023-01-11T06:31:00.464Z,71.28
2023-01-11T06:33:28.646Z,70.99
2023-01-11T06:35:56.207Z,71.03
2023-01-11T06:38:23.903Z,71.14
2023-01-11T06:40:56.744Z,70.92
2023-01-11T06:43:24.367Z,70.96
2023-01-11T06:45:51.224Z,71.04
2023-01-11T06:48:18.563Z,71.12
2023-01-11T06:50:53.354Z,70.96
2023-01-11T06:53:19.840Z,71.07
2023-01-11T06:55:50.963Z,70.96
2023-01-11T06:58:17.397Z,71.13
2023-01-11T07:00:43.846Z,71.28
2023-01-11T07:03:12.286Z,71.01
2023-01-11T07:05:39.744Z,71.17
2023-01-11T07:08:06.296Z,70.95
2023-01-11T07:10:32.757Z,71.08
2023-01-11T07:12:59.087Z,71.18
2023-01-11T07:15:25.901Z,71.22
2023-01-11T07:17:56.829Z,71.09
2023-01-11T07:20:24.709Z,71.12
2023-01-11T07:22:51.904Z,71.27
2023-01-11T07:25:18.774Z,71.35
2023-01-11T07:27:45.143Z,71.29
2023-01-11T07:30:11.991Z,71.25
2023-01-11T07:32:38.450Z,71.15
2023-01-11T07:35:05.315Z,70.93
2023-01-11T07:37:35.163Z,71.20
2023-01-11T07:40:01.556Z,71.17
2023-01-11T07:42:46.605Z,71.12
2023-01-11T07:45:13.105Z,71.25
2023-01-11T07:47:52.230Z,71.09
2023-01-11T07:50:18.696Z,71.31
2023-01-11T07:52:49.229Z,71.04
2023-01-11T07:55:16.286Z,71.35
2023-01-11T07:57:43.005Z,71.12
2023-01-11T08:00:10.452Z,71.33
2023-01-11T08:02:36.870Z,71.27
2023-01-11T08:05:03.516Z,71.28
2023-01-11T08:07:29.952Z,71.33
2023-01-11T08:09:56.352Z,71.22
2023-01-11T08:12:41.544Z,71.33
2023-01-11T08:15:10.255Z,71.24
2023-01-11T08:17:37.474Z,71.25
2023-01-11T08:20:04.502Z,71.07
2023-01-11T08:22:30.917Z,71.20
2023-01-11T08:24:57.290Z,71.30
2023-01-11T08:27:23.813Z,71.37
2023-01-11T08:29:50.207Z,71.42
2023-01-11T08:32:16.569Z,71.47
2023-01-11T08:34:42.984Z,71.56
2023-01-11T08:37:09.469Z,71.46
2023-01-11T08:39:35.875Z,71.31
2023-01-11T08:42:03.214Z,71.43
2023-01-11T08:44:34.000Z,71.52
2023-01-11T08:47:01.483Z,71.39
2023-01-11T08:49:27.868Z,71.33
2023-01-11T08:51:54.206Z,71.28
2023-01-11T08:54:20.594Z,71.48
2023-01-11T08:56:46.949Z,71.54
2023-01-11T08:59:13.575Z,71.35
2023-01-11T09:01:39.960Z,71.38
2023-01-11T09:04:15.818Z,71.44
2023-01-11T09:06:45.680Z,71.36
2023-01-11T09:09:12.311Z,71.38
2023-01-11T09:11:53.923Z,71.32
2023-01-11T09:14:21.622Z,71.37
2023-01-11T09:16:48.801Z,71.39
2023-01-11T09:19:15.407Z,71.47
2023-01-11T09:21:41.781Z,71.37
2023-01-11T09:24:08.392Z,71.43
2023-01-11T09:26:35.707Z,71.46
2023-01-11T09:29:05.276Z,71.21
2023-01-11T09:31:31.797Z,71.41
2023-01-11T09:33:58.201Z,71.28
2023-01-11T09:36:26.825Z,71.21
2023-01-11T09:38:56.683Z,71.33
2023-01-11T09:41:41.903Z,71.08
2023-01-11T09:44:16.390Z,71.23
2023-01-11T09:46:48.154Z,71.10
2023-01-11T09:49:40.563Z,70.96
2023-01-11T09:52:23.796Z,70.92
2023-01-11T09:54:51.146Z,71.06
2023-01-11T09:57:38.986Z,70.69
2023-01-11T10:00:22.423Z,70.66
2023-01-11T10:03:26.624Z,70.62
2023-01-11T10:06:02.798Z,70.61
2023-01-11T10:18:22.292Z,70.14
2023-01-11T10:18:43.473Z,69.80
2023-01-11T10:21:15.042Z,69.84
2023-01-11T10:23:54.591Z,69.82
2023-01-11T10:26:36.186Z,69.80
2023-01-11T10:29:16.780Z,69.57
2023-01-11T10:31:46.947Z,69.23
2023-01-11T10:34:34.630Z,69.26
2023-01-11T10:37:28.613Z,69.07
2023-01-11T10:40:58.913Z,68.88
2023-01-11T10:43:29.345Z,68.75
2023-01-11T10:45:59.342Z,68.49
2023-01-11T10:48:39.854Z,68.29
2023-01-11T10:51:29.319Z,68.05
2023-01-11T10:54:16.716Z,68.05
2023-01-11T10:57:18.023Z,67.97
2023-01-11T11:00:36.418Z,67.77
2023-01-11T11:03:36.964Z,67.43
2023-01-11T11:06:16.163Z,67.26
2023-01-11T11:09:24.868Z,67.04
2023-01-11T11:11:58.442Z,66.81
2023-01-11T11:14:36.079Z,66.54
2023-01-11T11:17:23.356Z,66.51
2023-01-11T11:19:50.931Z,66.04
2023-01-11T11:22:18.673Z,65.93
2023-01-11T11:24:55.197Z,66.09
2023-01-11T11:27:28.664Z,66.06
2023-01-11T11:29:56.846Z,66.09
2023-01-11T11:32:36.942Z,66.04
2023-01-11T11:35:04.281Z,65.79
2023-01-11T11:37:44.279Z,65.60
2023-01-11T11:40:40.111Z,65.62
2023-01-11T11:43:10.637Z,65.37
2023-01-11T11:45:37.063Z,65.25
2023-01-11T11:48:05.982Z,65.14
2023-01-11T11:50:44.412Z,65.17
2023-01-11T11:53:21.154Z,65.03
2023-01-11T11:55:47.497Z,64.49
2023-01-11T11:58:20.571Z,64.96
2023-01-11T12:00:52.052Z,64.91
2023-01-11T12:03:32.129Z,64.74
2023-01-11T12:06:02.199Z,64.56
2023-01-11T12:08:31.434Z,64.49
2023-01-11T12:11:01.601Z,63.86
2023-01-11T12:13:34.706Z,63.40
2023-01-11T12:16:05.159Z,62.58
2023-01-11T12:18:42.885Z,62.19
2023-01-11T12:21:22.802Z,62.04
2023-01-11T12:24:09.504Z,61.48
2023-01-11T12:27:05.282Z,61.44
2023-01-11T12:29:40.581Z,61.31
2023-01-11T12:32:37.431Z,61.62
2023-01-11T12:35:16.152Z,61.90
2023-01-11T12:38:01.676Z,62.16
2023-01-11T12:41:02.775Z,62.21
2023-01-11T12:43:43.076Z,62.29
2023-01-11T12:46:41.841Z,61.55
2023-01-11T12:49:54.984Z,61.34
2023-01-11T12:52:40.133Z,60.75
2023-01-11T12:55:33.976Z,60.60
2023-01-11T12:58:23.063Z,59.96
2023-01-11T13:01:14.637Z,59.43
2023-01-11T13:03:51.057Z,58.61
2023-01-11T13:06:25.520Z,58.13
2023-01-11T13:09:02.762Z,58.12
2023-01-11T13:11:37.875Z,57.94
2023-01-11T13:14:32.590Z,57.80
2023-01-11T13:17:40.953Z,57.91
2023-01-11T13:20:59.391Z,57.84
2023-01-11T13:23:46.295Z,58.24
2023-01-11T13:26:30.920Z,58.27
2023-01-11T13:29:03.619Z,58.29
2023-01-11T13:31:32.371Z,58.63
2023-01-11T13:34:05.329Z,58.80
2023-01-11T13:36:43.933Z,58.67
2023-01-11T13:39:20.929Z,58.23
2023-01-11T13:41:57.821Z,57.81
2023-01-11T13:44:30.052Z,56.94
2023-01-11T13:47:15.197Z,56.85
2023-01-11T13:50:01.233Z,57.08
2023-01-11T13:52:36.667Z,56.62
2023-01-11T13:55:24.435Z,56.81
2023-01-11T13:58:14.743Z,56.48
2023-01-11T14:00:52.469Z,56.55
2023-01-11T14:03:33.687Z,55.88
2023-01-11T14:06:17.382Z,56.18
2023-01-11T14:08:52.820Z,55.62
2023-01-11T14:11:31.790Z,55.98
2023-01-11T14:14:13.410Z,55.91
2023-01-11T14:16:50.558Z,56.11
2023-01-11T14:19:32.178Z,56.39
2023-01-11T14:22:26.592Z,56.63
2023-01-11T14:25:00.747Z,56.96
2023-01-11T14:28:04.593Z,57.18
2023-01-11T14:30:33.980Z,57.35
2023-01-11T14:33:43.931Z,57.56
2023-01-11T14:36:32.173Z,57.94
2023-01-11T14:39:32.671Z,57.99
2023-01-11T14:42:30.554Z,57.74
2023-01-11T14:45:13.899Z,57.60
2023-01-11T14:47:58.904Z,57.22
2023-01-11T14:51:01.362Z,57.34
2023-01-11T14:53:32.481Z,57.36
2023-01-11T14:55:58.958Z,56.92
2023-01-11T14:58:25.491Z,56.71
2023-01-11T15:00:54.721Z,57.20
2023-01-11T15:03:21.205Z,56.98
2023-01-11T15:06:09.399Z,57.40
2023-01-11T15:08:48.489Z,57.42
2023-01-11T15:11:41.790Z,57.49
2023-01-11T15:14:28.690Z,57.83
2023-01-11T15:17:18.645Z,58.00
2023-01-11T15:19:45.629Z,57.71
2023-01-11T15:22:28.144Z,57.98
2023-01-11T15:25:00.306Z,57.91
2023-01-11T15:27:36.484Z,58.05
2023-01-11T15:30:06.351Z,57.96
2023-01-11T15:32:34.469Z,57.89
2023-01-11T15:35:35.338Z,57.93
2023-01-11T15:38:33.961Z,57.84
2023-01-11T15:41:24.245Z,57.74
2023-01-11T15:44:17.207Z,57.86
2023-01-11T15:46:55.773Z,57.74
2023-01-11T15:49:44.220Z,57.92
2023-01-11T15:52:29.475Z,57.83
2023-01-11T15:55:01.783Z,57.78
2023-01-11T15:57:50.137Z,58.01
2023-01-11T16:00:31.483Z,58.19
2023-01-11T16:03:16.667Z,58.27
2023-01-11T16:05:54.169Z,58.40
2023-01-11T16:08:32.326Z,58.57
2023-01-11T16:11:29.856Z,58.52
2023-01-11T16:14:06.674Z,58.54
2023-01-11T16:16:40.130Z,58.41
2023-01-11T16:19:19.934Z,58.44
2023-01-11T16:21:49.857Z,58.11
2023-01-11T16:24:19.714Z,58.09
2023-01-11T16:26:53.153Z,58.58
2023-01-11T16:29:24.481Z,58.45
2023-01-11T16:32:18.101Z,58.53
2023-01-11T16:34:47.069Z,58.71
2023-01-11T16:37:36.364Z,58.70
2023-01-11T16:40:14.880Z,58.25
2023-01-11T16:42:48.705Z,58.85
2023-01-11T16:45:20.987Z,58.85
2023-01-11T16:48:05.109Z,58.74
2023-01-11T16:50:33.669Z,58.88
2023-01-11T16:53:03.267Z,58.84
2023-01-11T16:55:39.978Z,58.63
2023-01-11T16:58:29.745Z,58.79
2023-01-11T17:01:00.352Z,58.89
2023-01-11T17:03:29.966Z,58.57
2023-01-11T17:06:20.690Z,59.00
2023-01-11T17:08:52.309Z,58.73
2023-01-11T17:11:36.751Z,59.24
2023-01-11T17:14:11.668Z,59.12
2023-01-11T17:17:02.832Z,59.51
2023-01-11T17:19:31.973Z,59.40
2023-01-11T17:22:01.602Z,59.72
2023-01-11T17:24:28.610Z,59.90
2023-01-11T17:27:06.645Z,59.86
2023-01-11T17:29:40.438Z,59.92
2023-01-11T17:32:19.722Z,60.39
2023-01-11T17:34:48.824Z,60.38
2023-01-11T17:37:17.702Z,60.28
2023-01-11T17:39:50.176Z,60.50
2023-01-11T17:42:36.300Z,60.85
2023-01-11T17:45:15.774Z,61.00
2023-01-11T17:47:45.657Z,61.37
2023-01-11T17:50:55.360Z,61.19
2023-01-11T17:53:26.562Z,61.61
2023-01-11T17:55:54.768Z,61.37
2023-01-11T17:58:28.713Z,61.23
2023-01-11T18:01:04.229Z,61.15
2023-01-11T18:03:42.370Z,60.83
2023-01-11T18:06:34.231Z,61.06
2023-01-11T18:09:02.866Z,60.88
2023-01-11T18:11:38.977Z,60.83
2023-01-11T18:14:13.720Z,60.71
2023-01-11T18:16:56.340Z,60.57
2023-01-11T18:19:40.001Z,60.21
2023-01-11T18:22:37.223Z,60.36
2023-01-11T18:25:27.357Z,60.24
2023-01-11T18:28:12.255Z,59.94
2023-01-11T18:30:40.803Z,59.95
2023-01-11T18:33:28.263Z,60.28
2023-01-11T18:36:00.245Z,60.29
2023-01-11T18:38:32.554Z,60.42
2023-01-11T18:41:23.455Z,60.54
2023-01-11T18:43:49.955Z,60.56
2023-01-11T18:46:16.323Z,60.54
2023-01-11T18:48:43.099Z,60.27
2023-01-11T18:51:21.273Z,60.36
2023-01-11T18:53:47.712Z,59.95
2023-01-11T18:56:16.217Z,59.84
2023-01-11T18:58:42.749Z,60.25
2023-01-11T19:01:10.033Z,59.70
2023-01-11T19:03:37.604Z,59.51
2023-01-11T19:06:05.356Z,59.78
2023-01-11T19:08:31.781Z,59.53
2023-01-11T19:10:58.210Z,59.55
2023-01-11T19:13:24.543Z,59.51
2023-01-11T19:15:51.028Z,59.30
2023-01-11T19:18:17.536Z,59.25
2023-01-11T19:20:43.903Z,58.97
2023-01-11T19:23:10.291Z,58.77
2023-01-11T19:25:36.706Z,58.88
2023-01-11T19:28:04.232Z,58.92
2023-01-11T19:30:30.674Z,58.66
2023-01-11T19:32:57.153Z,58.63
2023-01-11T19:35:23.670Z,58.76
2023-01-11T19:37:51.109Z,58.92
2023-01-11T19:40:30.572Z,59.10
2023-01-11T19:43:10.844Z,59.01
2023-01-11T19:45:42.260Z,58.88
2023-01-11T19:48:08.942Z,58.66
2023-01-11T19:50:41.581Z,58.52
2023-01-11T19:53:14.378Z,58.67
2023-01-11T19:55:41.338Z,58.69
2023-01-11T19:58:12.797Z,58.66
2023-01-11T20:00:44.829Z,58.70
2023-01-11T20:03:16.545Z,58.71
2023-01-11T20:06:13.289Z,58.55
2023-01-11T20:08:41.517Z,58.81
2023-01-11T20:11:19.344Z,58.70
2023-01-11T20:14:08.926Z,58.88
2023-01-11T20:16:44.237Z,58.57
2023-01-11T20:19:13.618Z,58.62
2023-01-11T20:21:44.874Z,58.39
2023-01-11T20:24:37.133Z,58.61
2023-01-11T20:27:24.117Z,58.74
2023-01-11T20:29:54.240Z,58.48
2023-01-11T20:32:41.078Z,58.57
2023-01-11T20:35:11.798Z,58.33
2023-01-11T20:37:42.953Z,58.44
2023-01-11T20:40:24.144Z,58.69
2023-01-11T20:45:56.570Z,58.34
2023-01-11T20:48:23.276Z,58.29
2023-01-11T20:51:07.588Z,58.20
2023-01-11T20:53:41.839Z,58.20
2023-01-11T20:59:22.594Z,58.23
2023-01-11T21:01:59.259Z,58.21
2023-01-11T21:04:48.686Z,58.29
2023-01-11T21:07:24.628Z,58.00
2023-01-11T21:09:54.957Z,58.33
2023-01-11T21:12:32.141Z,58.19
2023-01-11T21:15:01.037Z,58.21
2023-01-11T21:17:38.395Z,58.33
2023-01-11T21:20:13.947Z,58.38
2023-01-11T21:22:55.866Z,58.38
2023-01-11T21:25:22.811Z,58.59
2023-01-11T21:27:52.690Z,58.62
2023-01-11T21:30:25.978Z,58.46
2023-01-11T21:32:55.116Z,58.64
2023-01-11T21:35:25.873Z,58.83
2023-01-11T21:37:52.661Z,58.80
2023-01-11T21:40:24.516Z,59.24
2023-01-11T21:43:01.019Z,59.64
2023-01-11T21:45:38.814Z,59.86
2023-01-11T21:48:07.786Z,59.82
2023-01-11T21:50:46.814Z,60.14
2023-01-11T21:53:17.554Z,60.22
2023-01-11T21:55:44.531Z,60.29
2023-01-11T21:58:11.252Z,60.57
2023-01-11T22:00:38.039Z,60.69
2023-01-11T22:03:04.939Z,60.73
2023-01-11T22:05:33.297Z,60.82
2023-01-11T22:07:59.955Z,60.98
2023-01-11T22:10:30.762Z,60.99
2023-01-11T22:12:57.503Z,60.94
2023-01-11T22:15:28.780Z,60.88
2023-01-11T22:17:58.617Z,61.01
2023-01-11T22:20:25.406Z,61.10
2023-01-11T22:22:54.948Z,61.08
2023-01-11T22:25:27.216Z,61.29
2023-01-11T22:28:01.431Z,61.27
2023-01-11T22:30:32.244Z,61.64
2023-01-11T22:33:04.831Z,61.62
2023-01-11T22:35:31.449Z,62.10
2023-01-11T22:38:09.796Z,62.08
2023-01-11T22:40:40.503Z,62.31
2023-01-11T22:43:09.441Z,62.68
2023-01-11T22:45:36.160Z,62.87
2023-01-11T22:48:03.036Z,63.15
2023-01-11T22:50:37.094Z,63.21
2023-01-11T22:53:05.962Z,63.33
2023-01-11T22:55:34.088Z,63.50
2023-01-11T22:58:12.938Z,63.69
2023-01-11T23:03:26.560Z,63.83
2023-01-11T23:05:55.445Z,63.88
2023-01-11T23:08:26.281Z,64.15
2023-01-11T23:10:58.910Z,64.13
2023-01-11T23:13:45.278Z,63.97
2023-01-11T23:16:14.305Z,64.08
2023-01-11T23:18:44.578Z,63.89
2023-01-11T23:21:11.644Z,64.40
2023-01-11T23:23:38.411Z,64.44
2023-01-11T23:26:05.873Z,64.46
2023-01-11T23:28:33.266Z,64.23
2023-01-11T23:31:04.453Z,64.41
2023-01-11T23:33:40.849Z,64.37
2023-01-11T23:36:10.969Z,64.18
2023-01-11T23:38:47.349Z,64.10
2023-01-11T23:41:43.967Z,63.96
2023-01-11T23:47:16.740Z,64.06
2023-01-11T23:49:53.826Z,64.02
2023-01-11T23:52:32.218Z,64.01
2023-01-11T23:55:02.021Z,63.63
2023-01-11T23:57:30.641Z,63.96
